createdAt,value
2023-02-13T06:32:56.256Z,-4.30
2023-02-13T06:35:23.900Z,-4.14
2023-02-13T06:37:51.083Z,-4.02
2023-02-13T06:40:20.613Z,-3.89
2023-02-13T06:42:48.102Z,-3.76
2023-02-13T06:45:15.606Z,-3.63
2023-02-13T06:47:43.802Z,-3.56
2023-02-13T06:50:11.117Z,-3.47
2023-02-13T06:52:38.597Z,-3.43
2023-02-13T06:55:07.056Z,-3.35
2023-02-13T06:57:34.380Z,-3.27
2023-02-13T07:00:05.660Z,-3.19
2023-02-13T07:02:34.319Z,-3.12
2023-02-13T07:05:03.314Z,-3.07
2023-02-13T07:07:34.044Z,-3.05
2023-02-13T07:10:03.058Z,-3.01
2023-02-13T07:12:32.369Z,-2.98
2023-02-13T07:14:59.264Z,-2.96
2023-02-13T07:17:27.104Z,-2.94
2023-02-13T07:19:55.049Z,-2.92
2023-02-13T07:22:25.205Z,-2.90
2023-02-13T07:24:53.429Z,-2.85
2023-02-13T07:27:21.347Z,-2.75
2023-02-13T07:29:48.286Z,-2.59
2023-02-13T07:32:15.706Z,-2.41
2023-02-13T07:34:55.988Z,-2.23
2023-02-13T07:37:28.445Z,-2.02
2023-02-13T07:39:55.276Z,-1.82
2023-02-13T07:42:22.164Z,-1.61
2023-02-13T07:44:51.970Z,-1.41
2023-02-13T07:47:20.338Z,-1.25
2023-02-13T07:49:50.736Z,-1.13
2023-02-13T07:52:21.015Z,-0.93
2023-02-13T07:54:52.406Z,-0.80
2023-02-13T07:57:20.490Z,-0.74
2023-02-13T07:59:49.155Z,-0.71
2023-02-13T08:02:16.353Z,-0.68
2023-02-13T08:04:46.012Z,-0.68
2023-02-13T08:07:13.837Z,-0.68
2023-02-13T08:09:59.859Z,-0.66
2023-02-13T08:12:33.042Z,-0.65
2023-02-13T08:14:59.985Z,-0.60
2023-02-13T08:17:39.443Z,-0.48
2023-02-13T08:20:09.935Z,-0.37
2023-02-13T08:22:37.229Z,-0.26
2023-02-13T08:25:16.116Z,-0.14
2023-02-13T08:27:49.148Z,-0.01
2023-02-13T08:30:22.624Z,0.11
2023-02-13T08:32:54.329Z,0.19
2023-02-13T08:35:22.232Z,0.26
2023-02-13T08:37:49.433Z,0.35
2023-02-13T08:40:16.359Z,0.45
2023-02-13T08:42:43.177Z,0.53
2023-02-13T08:45:11.349Z,0.61
2023-02-13T08:47:40.115Z,0.70
2023-02-13T08:50:07.196Z,0.77
2023-02-13T08:52:36.131Z,0.83
2023-02-13T08:55:04.365Z,0.88
2023-02-13T08:57:31.891Z,0.93
2023-02-13T08:59:59.178Z,0.99
2023-02-13T09:02:26.403Z,1.08
2023-02-13T09:04:53.641Z,1.16
2023-02-13T09:07:21.258Z,1.22
2023-02-13T09:09:48.924Z,1.28
2023-02-13T09:12:15.772Z,1.30
2023-02-13T09:14:44.055Z,1.37
2023-02-13T09:17:11.136Z,1.52
2023-02-13T09:19:38.010Z,1.72
2023-02-13T09:22:04.777Z,1.91
2023-02-13T09:24:31.935Z,2.06
2023-02-13T09:26:59.892Z,2.13
2023-02-13T09:29:30.660Z,2.18
2023-02-13T09:31:57.695Z,2.19
2023-02-13T09:34:25.555Z,2.21
2023-02-13T09:36:54.495Z,2.25
2023-02-13T09:39:21.540Z,2.27
2023-02-13T09:41:50.000Z,2.37
2023-02-13T09:44:34.175Z,2.55
2023-02-13T09:47:30.241Z,2.74
2023-02-13T09:53:43.208Z,2.97
2023-02-13T09:56:37.909Z,2.96
2023-02-13T09:59:38.978Z,2.90
2023-02-13T10:02:36.625Z,2.76
2023-02-13T10:06:05.335Z,2.60
2023-02-13T10:08:48.646Z,2.46
2023-02-13T10:12:06.602Z,2.40
2023-02-13T10:14:52.161Z,2.31
2023-02-13T10:17:58.387Z,2.26
2023-02-13T10:20:32.410Z,2.23
2023-02-13T10:23:07.712Z,2.18
2023-02-13T10:25:53.171Z,2.10
2023-02-13T10:28:30.296Z,2.04
2023-02-13T10:30:59.361Z,2.02
2023-02-13T10:33:29.367Z,1.99
2023-02-13T10:36:08.552Z,1.97
2023-02-13T10:38:51.003Z,1.97
2023-02-13T10:41:52.745Z,1.99
2023-02-13T10:44:23.190Z,1.98
2023-02-13T10:46:59.678Z,2.03
2023-02-13T10:49:38.561Z,2.07
2023-02-13T10:52:27.120Z,2.11
2023-02-13T10:55:23.532Z,2.15
2023-02-13T10:58:22.162Z,2.23
2023-02-13T11:01:05.219Z,2.29
2023-02-13T11:03:33.598Z,2.28
2023-02-13T11:06:01.234Z,2.26
2023-02-13T11:08:30.623Z,2.21
2023-02-13T11:10:57.430Z,2.20
2023-02-13T11:13:26.133Z,2.18
2023-02-13T11:16:11.567Z,2.15
2023-02-13T11:18:43.664Z,2.11
2023-02-13T11:21:13.961Z,2.07
2023-02-13T11:23:43.297Z,2.04
2023-02-13T11:26:32.573Z,2.02
2023-02-13T11:29:01.229Z,1.99
2023-02-13T11:31:34.166Z,1.95
2023-02-13T11:34:26.610Z,1.91
2023-02-13T11:37:25.494Z,1.91
2023-02-13T11:39:56.570Z,1.93
2023-02-13T11:42:27.706Z,1.96
2023-02-13T11:44:58.049Z,1.99
2023-02-13T11:47:39.220Z,2.03
2023-02-13T11:50:27.416Z,2.05
2023-02-13T11:53:02.494Z,2.10
2023-02-13T11:55:32.960Z,2.18
2023-02-13T11:58:00.106Z,2.24
2023-02-13T12:00:33.126Z,2.29
2023-02-13T12:03:00.183Z,2.34
2023-02-13T12:05:28.043Z,2.38
2023-02-13T12:07:56.774Z,2.41
2023-02-13T12:10:28.823Z,2.45
2023-02-13T12:13:15.122Z,2.49
2023-02-13T12:15:41.805Z,2.61
2023-02-13T12:18:19.068Z,2.79
2023-02-13T12:21:01.103Z,2.96
2023-02-13T12:24:01.281Z,3.08
2023-02-13T12:26:42.135Z,3.13
2023-02-13T12:29:43.799Z,3.21
2023-02-13T12:32:20.507Z,3.33
2023-02-13T12:35:02.135Z,3.49
2023-02-13T12:37:44.047Z,3.60
2023-02-13T12:40:19.832Z,3.70
2023-02-13T12:43:03.275Z,3.94
2023-02-13T12:45:32.987Z,4.25
2023-02-13T12:48:33.396Z,4.32
2023-02-13T12:51:06.276Z,4.11
2023-02-13T12:53:39.616Z,3.82
2023-02-13T12:56:25.098Z,3.55
2023-02-13T12:58:55.936Z,3.34
2023-02-13T13:01:34.765Z,3.22
2023-02-13T13:04:27.554Z,3.12
2023-02-13T13:07:03.365Z,3.04
2023-02-13T13:09:48.411Z,2.98
2023-02-13T13:12:29.858Z,2.92
